sensor_id;sensor_type;location;lat;lon;timestamp;P1;durP1;ratioP1;P2;durP2;ratioP2
19605;SDS011;9950;50.168;8.210;2022-11-15T00:01:29;25.63;;;15.80;;
19605;SDS011;9950;50.168;8.210;2022-11-15T00:03:56;25.58;;;15.38;;
19605;SDS011;9950;50.168;8.210;2022-11-15T00:06:23;26.10;;;15.68;;
19605;SDS011;9950;50.168;8.210;2022-11-15T00:08:50;27.25;;;15.60;;
19605;SDS011;9950;50.168;8.210;2022-11-15T00:11:18;22.75;;;14.70;;
19605;SDS011;9950;50.168;8.210;2022-11-15T00:13:46;27.48;;;16.35;;
19605;SDS011;9950;50.168;8.210;2022-11-15T00:16:13;23.58;;;14.75;;
19605;SDS011;9950;50.168;8.210;2022-11-15T00:18:41;26.63;;;14.82;;
19605;SDS011;9950;50.168;8.210;2022-11-15T00:21:09;27.67;;;15.27;;
19605;SDS011;9950;50.168;8.210;2022-11-15T00:23:37;27.58;;;15.93;;
19605;SDS011;9950;50.168;8.210;2022-11-15T00:26:04;24.90;;;15.10;;
19605;SDS011;9950;50.168;8.210;2022-11-15T00:28:32;23.67;;;14.55;;
19605;SDS011;9950;50.168;8.210;2022-11-15T00:31:01;22.83;;;14.32;;
19605;SDS011;9950;50.168;8.210;2022-11-15T00:33:29;23.40;;;14.15;;
19605;SDS011;9950;50.168;8.210;2022-11-15T00:36:00;26.85;;;13.85;;
19605;SDS011;9950;50.168;8.210;2022-11-15T00:38:30;23.95;;;14.43;;
19605;SDS011;9950;50.168;8.210;2022-11-15T00:40:57;23.25;;;14.30;;
19605;SDS011;9950;50.168;8.210;2022-11-15T00:43:24;20.60;;;13.95;;
19605;SDS011;9950;50.168;8.210;2022-11-15T00:45:52;23.08;;;13.63;;
19605;SDS011;9950;50.168;8.210;2022-11-15T00:48:20;18.95;;;12.15;;
19605;SDS011;9950;50.168;8.210;2022-11-15T00:50:47;21.23;;;12.95;;
19605;SDS011;9950;50.168;8.210;2022-11-15T00:53:15;20.38;;;12.75;;
19605;SDS011;9950;50.168;8.210;2022-11-15T00:55:42;19.35;;;12.68;;
19605;SDS011;9950;50.168;8.210;2022-11-15T00:58:09;20.85;;;12.35;;
19605;SDS011;9950;50.168;8.210;2022-11-15T01:00:36;19.55;;;12.52;;
19605;SDS011;9950;50.168;8.210;2022-11-15T01:03:04;18.08;;;11.60;;
19605;SDS011;9950;50.168;8.210;2022-11-15T01:05:32;21.98;;;13.38;;
19605;SDS011;9950;50.168;8.210;2022-11-15T01:07:59;20.80;;;12.48;;
19605;SDS011;9950;50.168;8.210;2022-11-15T01:10:27;22.08;;;12.85;;
19605;SDS011;9950;50.168;8.210;2022-11-15T01:12:54;21.58;;;12.35;;
19605;SDS011;9950;50.168;8.210;2022-11-15T01:15:21;21.02;;;13.00;;
19605;SDS011;9950;50.168;8.210;2022-11-15T01:17:48;18.17;;;10.80;;
19605;SDS011;9950;50.168;8.210;2022-11-15T01:20:15;18.52;;;10.38;;
19605;SDS011;9950;50.168;8.210;2022-11-15T01:22:45;14.95;;;10.93;;
19605;SDS011;9950;50.168;8.210;2022-11-15T01:25:12;17.52;;;10.55;;
19605;SDS011;9950;50.168;8.210;2022-11-15T01:27:39;16.35;;;10.77;;
19605;SDS011;9950;50.168;8.210;2022-11-15T01:30:07;19.63;;;10.07;;
19605;SDS011;9950;50.168;8.210;2022-11-15T01:32:34;16.30;;;10.65;;
19605;SDS011;9950;50.168;8.210;2022-11-15T01:35:02;21.25;;;10.88;;
19605;SDS011;9950;50.168;8.210;2022-11-15T01:37:30;17.45;;;10.65;;
19605;SDS011;9950;50.168;8.210;2022-11-15T01:39:58;19.50;;;10.30;;
19605;SDS011;9950;50.168;8.210;2022-11-15T01:42:25;16.50;;;10.40;;
19605;SDS011;9950;50.168;8.210;2022-11-15T01:44:53;19.38;;;11.40;;
19605;SDS011;9950;50.168;8.210;2022-11-15T01:47:20;17.52;;;10.50;;
19605;SDS011;9950;50.168;8.210;2022-11-15T01:49:51;14.90;;;9.93;;
19605;SDS011;9950;50.168;8.210;2022-11-15T01:52:19;18.65;;;10.40;;
19605;SDS011;9950;50.168;8.210;2022-11-15T01:54:48;15.68;;;10.13;;
19605;SDS011;9950;50.168;8.210;2022-11-15T01:57:17;23.63;;;11.45;;
19605;SDS011;9950;50.168;8.210;2022-11-15T01:59:45;15.70;;;10.93;;
19605;SDS011;9950;50.168;8.210;2022-11-15T02:02:12;15.15;;;10.05;;
19605;SDS011;9950;50.168;8.210;2022-11-15T02:04:40;14.60;;;10.13;;
19605;SDS011;9950;50.168;8.210;2022-11-15T02:07:08;19.65;;;10.63;;
19605;SDS011;9950;50.168;8.210;2022-11-15T02:09:36;16.73;;;10.55;;
19605;SDS011;9950;50.168;8.210;2022-11-15T02:12:04;14.48;;;9.88;;
19605;SDS011;9950;50.168;8.210;2022-11-15T02:14:33;21.05;;;11.35;;
19605;SDS011;9950;50.168;8.210;2022-11-15T02:17:02;19.80;;;11.23;;
19605;SDS011;9950;50.168;8.210;2022-11-15T02:19:40;16.92;;;10.63;;
19605;SDS011;9950;50.168;8.210;2022-11-15T02:22:16;18.17;;;10.70;;
19605;SDS011;9950;50.168;8.210;2022-11-15T02:24:50;17.55;;;11.35;;
19605;SDS011;9950;50.168;8.210;2022-11-15T02:27:39;19.00;;;11.07;;
19605;SDS011;9950;50.168;8.210;2022-11-15T02:32:57;18.30;;;10.48;;
19605;SDS011;9950;50.168;8.210;2022-11-15T02:35:28;19.60;;;11.30;;
19605;SDS011;9950;50.168;8.210;2022-11-15T02:37:57;18.23;;;10.45;;
19605;SDS011;9950;50.168;8.210;2022-11-15T02:40:33;16.23;;;10.45;;
19605;SDS011;9950;50.168;8.210;2022-11-15T02:43:03;15.43;;;9.90;;
19605;SDS011;9950;50.168;8.210;2022-11-15T02:45:50;15.48;;;10.13;;
19605;SDS011;9950;50.168;8.210;2022-11-15T02:48:20;14.30;;;9.60;;
19605;SDS011;9950;50.168;8.210;2022-11-15T02:50:48;15.32;;;9.68;;
19605;SDS011;9950;50.168;8.210;2022-11-15T02:53:15;15.70;;;9.88;;
19605;SDS011;9950;50.168;8.210;2022-11-15T02:55:43;14.35;;;9.48;;
19605;SDS011;9950;50.168;8.210;2022-11-15T02:58:32;18.58;;;10.43;;
19605;SDS011;9950;50.168;8.210;2022-11-15T03:01:03;15.15;;;9.63;;
19605;SDS011;9950;50.168;8.210;2022-11-15T03:03:37;16.88;;;9.68;;
19605;SDS011;9950;50.168;8.210;2022-11-15T03:06:10;15.07;;;8.88;;
19605;SDS011;9950;50.168;8.210;2022-11-15T03:08:43;14.80;;;9.20;;
19605;SDS011;9950;50.168;8.210;2022-11-15T03:11:12;14.00;;;9.52;;
19605;SDS011;9950;50.168;8.210;2022-11-15T03:13:42;19.23;;;11.77;;
19605;SDS011;9950;50.168;8.210;2022-11-15T03:16:15;17.20;;;11.27;;
19605;SDS011;9950;50.168;8.210;2022-11-15T03:18:45;19.63;;;12.30;;
19605;SDS011;9950;50.168;8.210;2022-11-15T03:21:14;16.58;;;11.43;;
19605;SDS011;9950;50.168;8.210;2022-11-15T03:23:43;22.05;;;13.23;;
19605;SDS011;9950;50.168;8.210;2022-11-15T03:26:12;22.30;;;12.07;;
19605;SDS011;9950;50.168;8.210;2022-11-15T03:28:41;19.05;;;12.63;;
19605;SDS011;9950;50.168;8.210;2022-11-15T03:31:09;16.65;;;11.43;;
19605;SDS011;9950;50.168;8.210;2022-11-15T03:33:54;18.63;;;11.27;;
19605;SDS011;9950;50.168;8.210;2022-11-15T03:36:22;16.58;;;11.57;;
19605;SDS011;9950;50.168;8.210;2022-11-15T03:38:51;19.00;;;12.00;;
19605;SDS011;9950;50.168;8.210;2022-11-15T03:41:21;18.35;;;12.25;;
19605;SDS011;9950;50.168;8.210;2022-11-15T03:43:51;20.13;;;13.02;;
19605;SDS011;9950;50.168;8.210;2022-11-15T03:46:21;25.67;;;13.88;;
19605;SDS011;9950;50.168;8.210;2022-11-15T03:48:50;19.80;;;13.80;;
19605;SDS011;9950;50.168;8.210;2022-11-15T03:51:20;22.52;;;14.65;;
19605;SDS011;9950;50.168;8.210;2022-11-15T03:53:47;23.13;;;14.10;;
19605;SDS011;9950;50.168;8.210;2022-11-15T03:56:14;25.77;;;15.13;;
19605;SDS011;9950;50.168;8.210;2022-11-15T03:58:41;21.02;;;13.80;;
19605;SDS011;9950;50.168;8.210;2022-11-15T04:01:09;21.27;;;13.80;;
19605;SDS011;9950;50.168;8.210;2022-11-15T04:03:36;21.88;;;13.45;;
19605;SDS011;9950;50.168;8.210;2022-11-15T04:06:03;19.38;;;13.90;;
19605;SDS011;9950;50.168;8.210;2022-11-15T04:08:32;19.40;;;13.27;;
19605;SDS011;9950;50.168;8.210;2022-11-15T04:10:59;20.70;;;13.13;;
19605;SDS011;9950;50.168;8.210;2022-11-15T04:13:26;20.45;;;13.57;;
19605;SDS011;9950;50.168;8.210;2022-11-15T04:15:54;19.50;;;13.23;;
19605;SDS011;9950;50.168;8.210;2022-11-15T04:18:21;21.85;;;13.98;;
19605;SDS011;9950;50.168;8.210;2022-11-15T04:20:49;25.73;;;14.63;;
19605;SDS011;9950;50.168;8.210;2022-11-15T04:23:35;27.55;;;15.07;;
19605;SDS011;9950;50.168;8.210;2022-11-15T04:26:25;23.00;;;14.95;;
19605;SDS011;9950;50.168;8.210;2022-11-15T04:28:53;21.73;;;14.98;;
19605;SDS011;9950;50.168;8.210;2022-11-15T04:31:38;24.17;;;15.13;;
19605;SDS011;9950;50.168;8.210;2022-11-15T04:34:05;23.58;;;14.93;;
19605;SDS011;9950;50.168;8.210;2022-11-15T04:36:32;25.42;;;14.40;;
19605;SDS011;9950;50.168;8.210;2022-11-15T04:39:19;24.23;;;14.30;;
19605;SDS011;9950;50.168;8.210;2022-11-15T04:41:46;23.52;;;14.10;;
19605;SDS011;9950;50.168;8.210;2022-11-15T04:44:13;24.77;;;15.43;;
19605;SDS011;9950;50.168;8.210;2022-11-15T04:46:41;20.63;;;12.98;;
19605;SDS011;9950;50.168;8.210;2022-11-15T04:49:08;19.63;;;12.98;;
19605;SDS011;9950;50.168;8.210;2022-11-15T04:51:35;18.50;;;12.45;;
19605;SDS011;9950;50.168;8.210;2022-11-15T04:54:03;19.45;;;13.15;;
19605;SDS011;9950;50.168;8.210;2022-11-15T04:56:31;20.50;;;12.63;;
19605;SDS011;9950;50.168;8.210;2022-11-15T04:58:58;20.92;;;12.73;;
19605;SDS011;9950;50.168;8.210;2022-11-15T05:01:26;18.00;;;11.48;;
19605;SDS011;9950;50.168;8.210;2022-11-15T05:03:53;18.48;;;11.63;;
19605;SDS011;9950;50.168;8.210;2022-11-15T05:06:38;16.83;;;12.00;;
19605;SDS011;9950;50.168;8.210;2022-11-15T05:09:05;18.83;;;10.73;;
19605;SDS011;9950;50.168;8.210;2022-11-15T05:11:34;13.93;;;9.68;;
19605;SDS011;9950;50.168;8.210;2022-11-15T05:14:01;14.43;;;9.50;;
19605;SDS011;9950;50.168;8.210;2022-11-15T05:16:28;15.05;;;9.43;;
19605;SDS011;9950;50.168;8.210;2022-11-15T05:18:55;13.77;;;9.88;;
19605;SDS011;9950;50.168;8.210;2022-11-15T05:21:23;12.40;;;8.52;;
19605;SDS011;9950;50.168;8.210;2022-11-15T05:23:50;14.00;;;8.63;;
19605;SDS011;9950;50.168;8.210;2022-11-15T05:26:17;14.88;;;8.18;;
19605;SDS011;9950;50.168;8.210;2022-11-15T05:28:46;13.05;;;8.18;;
19605;SDS011;9950;50.168;8.210;2022-11-15T05:31:14;11.45;;;8.05;;
19605;SDS011;9950;50.168;8.210;2022-11-15T05:33:42;14.48;;;8.20;;
19605;SDS011;9950;50.168;8.210;2022-11-15T05:36:12;12.07;;;8.10;;
19605;SDS011;9950;50.168;8.210;2022-11-15T05:38:40;12.55;;;8.05;;
19605;SDS011;9950;50.168;8.210;2022-11-15T05:41:08;12.85;;;8.15;;
19605;SDS011;9950;50.168;8.210;2022-11-15T05:43:35;13.48;;;8.23;;
19605;SDS011;9950;50.168;8.210;2022-11-15T05:46:06;12.77;;;7.97;;
19605;SDS011;9950;50.168;8.210;2022-11-15T05:48:33;11.35;;;7.70;;
19605;SDS011;9950;50.168;8.210;2022-11-15T05:51:01;14.07;;;8.00;;
19605;SDS011;9950;50.168;8.210;2022-11-15T05:53:29;11.63;;;7.80;;
19605;SDS011;9950;50.168;8.210;2022-11-15T05:55:56;13.27;;;7.82;;
19605;SDS011;9950;50.168;8.210;2022-11-15T05:58:23;11.80;;;8.10;;
19605;SDS011;9950;50.168;8.210;2022-11-15T06:00:50;12.65;;;8.15;;
19605;SDS011;9950;50.168;8.210;2022-11-15T06:03:19;12.30;;;7.60;;
19605;SDS011;9950;50.168;8.210;2022-11-15T06:05:46;11.93;;;7.45;;
19605;SDS011;9950;50.168;8.210;2022-11-15T06:08:13;15.52;;;8.10;;
19605;SDS011;9950;50.168;8.210;2022-11-15T06:10:41;12.90;;;8.20;;
19605;SDS011;9950;50.168;8.210;2022-11-15T06:13:08;15.18;;;8.05;;
19605;SDS011;9950;50.168;8.210;2022-11-15T06:15:35;13.98;;;8.98;;
19605;SDS011;9950;50.168;8.210;2022-11-15T06:18:02;15.80;;;8.57;;
19605;SDS011;9950;50.168;8.210;2022-11-15T06:20:31;13.90;;;9.18;;
19605;SDS011;9950;50.168;8.210;2022-11-15T06:22:58;14.35;;;9.82;;
19605;SDS011;9950;50.168;8.210;2022-11-15T06:25:26;16.65;;;9.88;;
19605;SDS011;9950;50.168;8.210;2022-11-15T06:27:53;15.25;;;10.38;;
19605;SDS011;9950;50.168;8.210;2022-11-15T06:30:21;16.02;;;10.25;;
19605;SDS011;9950;50.168;8.210;2022-11-15T06:32:48;16.02;;;9.48;;
19605;SDS011;9950;50.168;8.210;2022-11-15T06:35:15;14.68;;;9.80;;
19605;SDS011;9950;50.168;8.210;2022-11-15T06:37:44;13.88;;;9.50;;
19605;SDS011;9950;50.168;8.210;2022-11-15T06:40:11;12.73;;;9.77;;
19605;SDS011;9950;50.168;8.210;2022-11-15T06:42:38;13.88;;;9.27;;
19605;SDS011;9950;50.168;8.210;2022-11-15T06:45:06;17.25;;;9.82;;
19605;SDS011;9950;50.168;8.210;2022-11-15T06:47:33;15.20;;;9.88;;
19605;SDS011;9950;50.168;8.210;2022-11-15T06:50:00;17.13;;;11.15;;
19605;SDS011;9950;50.168;8.210;2022-11-15T06:52:27;18.52;;;11.40;;
19605;SDS011;9950;50.168;8.210;2022-11-15T06:54:59;19.60;;;10.52;;
19605;SDS011;9950;50.168;8.210;2022-11-15T06:57:26;16.98;;;11.05;;
19605;SDS011;9950;50.168;8.210;2022-11-15T06:59:53;18.23;;;10.93;;
19605;SDS011;9950;50.168;8.210;2022-11-15T07:02:20;17.60;;;10.13;;
19605;SDS011;9950;50.168;8.210;2022-11-15T07:04:47;16.00;;;10.60;;
19605;SDS011;9950;50.168;8.210;2022-11-15T07:07:15;17.17;;;12.20;;
19605;SDS011;9950;50.168;8.210;2022-11-15T07:09:42;17.30;;;11.18;;
19605;SDS011;9950;50.168;8.210;2022-11-15T07:12:10;17.60;;;11.50;;
19605;SDS011;9950;50.168;8.210;2022-11-15T07:14:37;16.45;;;10.95;;
19605;SDS011;9950;50.168;8.210;2022-11-15T07:17:05;18.20;;;11.20;;
19605;SDS011;9950;50.168;8.210;2022-11-15T07:19:32;14.70;;;10.70;;
19605;SDS011;9950;50.168;8.210;2022-11-15T07:21:59;17.20;;;11.50;;
19605;SDS011;9950;50.168;8.210;2022-11-15T07:24:26;17.65;;;10.80;;
19605;SDS011;9950;50.168;8.210;2022-11-15T07:26:53;15.15;;;9.85;;
19605;SDS011;9950;50.168;8.210;2022-11-15T07:29:22;17.30;;;9.27;;
19605;SDS011;9950;50.168;8.210;2022-11-15T07:31:49;15.23;;;9.23;;
19605;SDS011;9950;50.168;8.210;2022-11-15T07:34:16;15.35;;;9.25;;
19605;SDS011;9950;50.168;8.210;2022-11-15T07:36:43;17.13;;;9.35;;
19605;SDS011;9950;50.168;8.210;2022-11-15T07:39:11;16.40;;;8.82;;
19605;SDS011;9950;50.168;8.210;2022-11-15T07:41:39;14.73;;;9.23;;
19605;SDS011;9950;50.168;8.210;2022-11-15T07:44:06;18.52;;;9.10;;
19605;SDS011;9950;50.168;8.210;2022-11-15T07:46:35;14.48;;;9.32;;
19605;SDS011;9950;50.168;8.210;2022-11-15T07:49:02;11.20;;;7.90;;
19605;SDS011;9950;50.168;8.210;2022-11-15T07:51:29;12.10;;;8.15;;
19605;SDS011;9950;50.168;8.210;2022-11-15T07:53:57;11.77;;;8.48;;
19605;SDS011;9950;50.168;8.210;2022-11-15T07:56:24;12.88;;;8.07;;
19605;SDS011;9950;50.168;8.210;2022-11-15T07:58:51;13.52;;;7.90;;
19605;SDS011;9950;50.168;8.210;2022-11-15T08:01:18;13.98;;;8.10;;
19605;SDS011;9950;50.168;8.210;2022-11-15T08:03:47;12.30;;;7.75;;
19605;SDS011;9950;50.168;8.210;2022-11-15T08:06:14;10.88;;;7.55;;
19605;SDS011;9950;50.168;8.210;2022-11-15T08:08:41;10.43;;;7.38;;
19605;SDS011;9950;50.168;8.210;2022-11-15T08:11:09;12.32;;;7.68;;
19605;SDS011;9950;50.168;8.210;2022-11-15T08:13:36;10.40;;;7.05;;
19605;SDS011;9950;50.168;8.210;2022-11-15T08:16:03;10.18;;;7.15;;
19605;SDS011;9950;50.168;8.210;2022-11-15T08:18:31;10.88;;;7.05;;
19605;SDS011;9950;50.168;8.210;2022-11-15T08:21:00;11.48;;;7.78;;
19605;SDS011;9950;50.168;8.210;2022-11-15T08:23:27;13.13;;;8.90;;
19605;SDS011;9950;50.168;8.210;2022-11-15T08:25:58;12.55;;;8.52;;
19605;SDS011;9950;50.168;8.210;2022-11-15T08:28:26;12.77;;;8.45;;
19605;SDS011;9950;50.168;8.210;2022-11-15T08:30:53;15.18;;;9.20;;
19605;SDS011;9950;50.168;8.210;2022-11-15T08:33:21;14.68;;;9.00;;
19605;SDS011;9950;50.168;8.210;2022-11-15T08:35:48;11.27;;;8.20;;
19605;SDS011;9950;50.168;8.210;2022-11-15T08:38:16;12.95;;;9.15;;
19605;SDS011;9950;50.168;8.210;2022-11-15T08:40:43;14.43;;;8.68;;
19605;SDS011;9950;50.168;8.210;2022-11-15T08:43:11;13.25;;;8.57;;
19605;SDS011;9950;50.168;8.210;2022-11-15T08:45:38;11.05;;;7.82;;
19605;SDS011;9950;50.168;8.210;2022-11-15T08:48:05;15.30;;;7.88;;
19605;SDS011;9950;50.168;8.210;2022-11-15T08:50:33;10.57;;;7.25;;
19605;SDS011;9950;50.168;8.210;2022-11-15T08:53:03;11.52;;;7.82;;
19605;SDS011;9950;50.168;8.210;2022-11-15T08:55:32;10.52;;;7.60;;
19605;SDS011;9950;50.168;8.210;2022-11-15T08:57:59;10.57;;;6.85;;
19605;SDS011;9950;50.168;8.210;2022-11-15T09:00:26;12.07;;;6.95;;
19605;SDS011;9950;50.168;8.210;2022-11-15T09:02:54;9.73;;;7.13;;
19605;SDS011;9950;50.168;8.210;2022-11-15T09:05:21;9.68;;;6.00;;
19605;SDS011;9950;50.168;8.210;2022-11-15T09:07:52;8.73;;;6.85;;
19605;SDS011;9950;50.168;8.210;2022-11-15T09:10:20;9.65;;;6.20;;
19605;SDS011;9950;50.168;8.210;2022-11-15T09:12:48;8.73;;;5.85;;
19605;SDS011;9950;50.168;8.210;2022-11-15T09:15:16;7.60;;;5.50;;
19605;SDS011;9950;50.168;8.210;2022-11-15T09:17:44;8.68;;;5.60;;
19605;SDS011;9950;50.168;8.210;2022-11-15T09:20:12;10.32;;;6.32;;
19605;SDS011;9950;50.168;8.210;2022-11-15T09:22:39;9.50;;;6.75;;
19605;SDS011;9950;50.168;8.210;2022-11-15T09:25:07;8.52;;;6.25;;
19605;SDS011;9950;50.168;8.210;2022-11-15T09:27:34;8.77;;;6.18;;
19605;SDS011;9950;50.168;8.210;2022-11-15T09:30:03;8.82;;;5.85;;
19605;SDS011;9950;50.168;8.210;2022-11-15T09:32:31;9.98;;;6.32;;
19605;SDS011;9950;50.168;8.210;2022-11-15T09:34:58;9.30;;;6.53;;
19605;SDS011;9950;50.168;8.210;2022-11-15T09:37:25;9.25;;;6.35;;
19605;SDS011;9950;50.168;8.210;2022-11-15T09:39:52;7.78;;;6.32;;
19605;SDS011;9950;50.168;8.210;2022-11-15T09:42:25;10.02;;;6.60;;
19605;SDS011;9950;50.168;8.210;2022-11-15T09:45:04;9.00;;;5.88;;
19605;SDS011;9950;50.168;8.210;2022-11-15T09:47:38;8.52;;;5.88;;
19605;SDS011;9950;50.168;8.210;2022-11-15T09:50:09;11.77;;;6.43;;
19605;SDS011;9950;50.168;8.210;2022-11-15T09:52:36;9.60;;;6.40;;
19605;SDS011;9950;50.168;8.210;2022-11-15T09:55:07;8.77;;;6.22;;
19605;SDS011;9950;50.168;8.210;2022-11-15T09:57:37;9.27;;;6.47;;
19605;SDS011;9950;50.168;8.210;2022-11-15T10:00:10;8.27;;;6.28;;
19605;SDS011;9950;50.168;8.210;2022-11-15T10:02:43;8.65;;;6.22;;
19605;SDS011;9950;50.168;8.210;2022-11-15T10:05:14;7.43;;;5.93;;
19605;SDS011;9950;50.168;8.210;2022-11-15T10:07:45;11.38;;;5.80;;
19605;SDS011;9950;50.168;8.210;2022-11-15T10:10:14;7.97;;;5.93;;
19605;SDS011;9950;50.168;8.210;2022-11-15T10:12:45;9.10;;;5.68;;
19605;SDS011;9950;50.168;8.210;2022-11-15T10:15:15;8.38;;;5.82;;
19605;SDS011;9950;50.168;8.210;2022-11-15T10:20:33;10.90;;;5.75;;
19605;SDS011;9950;50.168;8.210;2022-11-15T10:23:02;9.02;;;5.32;;
19605;SDS011;9950;50.168;8.210;2022-11-15T10:25:33;7.13;;;5.57;;
19605;SDS011;9950;50.168;8.210;2022-11-15T10:28:01;8.60;;;5.70;;
19605;SDS011;9950;50.168;8.210;2022-11-15T10:30:33;8.98;;;5.85;;
19605;SDS011;9950;50.168;8.210;2022-11-15T10:33:08;8.73;;;5.80;;
19605;SDS011;9950;50.168;8.210;2022-11-15T10:35:36;8.60;;;5.45;;
19605;SDS011;9950;50.168;8.210;2022-11-15T10:38:05;6.38;;;4.63;;
19605;SDS011;9950;50.168;8.210;2022-11-15T10:40:32;7.95;;;5.95;;
19605;SDS011;9950;50.168;8.210;2022-11-15T10:43:12;9.52;;;5.80;;
19605;SDS011;9950;50.168;8.210;2022-11-15T10:45:41;8.07;;;5.18;;
19605;SDS011;9950;50.168;8.210;2022-11-15T10:48:19;6.60;;;5.25;;
19605;SDS011;9950;50.168;8.210;2022-11-15T10:50:47;10.00;;;5.65;;
19605;SDS011;9950;50.168;8.210;2022-11-15T10:53:17;6.55;;;5.10;;
19605;SDS011;9950;50.168;8.210;2022-11-15T10:55:46;7.32;;;5.55;;
19605;SDS011;9950;50.168;8.210;2022-11-15T10:58:19;8.00;;;5.40;;
19605;SDS011;9950;50.168;8.210;2022-11-15T11:00:49;8.38;;;5.60;;
19605;SDS011;9950;50.168;8.210;2022-11-15T11:03:27;8.32;;;5.28;;
19605;SDS011;9950;50.168;8.210;2022-11-15T11:06:05;6.50;;;4.82;;
19605;SDS011;9950;50.168;8.210;2022-11-15T11:08:33;8.13;;;4.90;;
19605;SDS011;9950;50.168;8.210;2022-11-15T11:11:00;5.85;;;4.60;;
19605;SDS011;9950;50.168;8.210;2022-11-15T11:13:29;8.32;;;4.88;;
19605;SDS011;9950;50.168;8.210;2022-11-15T11:16:00;9.98;;;5.22;;
19605;SDS011;9950;50.168;8.210;2022-11-15T11:18:32;7.88;;;4.63;;
19605;SDS011;9950;50.168;8.210;2022-11-15T11:21:01;6.15;;;5.18;;
19605;SDS011;9950;50.168;8.210;2022-11-15T11:23:42;5.97;;;4.93;;
19605;SDS011;9950;50.168;8.210;2022-11-15T11:26:18;5.97;;;4.72;;
19605;SDS011;9950;50.168;8.210;2022-11-15T11:28:53;9.52;;;5.63;;
19605;SDS011;9950;50.168;8.210;2022-11-15T11:31:24;8.18;;;5.32;;
19605;SDS011;9950;50.168;8.210;2022-11-15T11:33:57;7.13;;;5.40;;
19605;SDS011;9950;50.168;8.210;2022-11-15T11:36:27;9.00;;;5.90;;
19605;SDS011;9950;50.168;8.210;2022-11-15T11:39:02;7.47;;;5.78;;
19605;SDS011;9950;50.168;8.210;2022-11-15T11:41:43;8.60;;;6.18;;
19605;SDS011;9950;50.168;8.210;2022-11-15T11:44:18;8.07;;;6.57;;
19605;SDS011;9950;50.168;8.210;2022-11-15T11:46:52;8.98;;;7.20;;
19605;SDS011;9950;50.168;8.210;2022-11-15T11:49:23;11.95;;;7.78;;
19605;SDS011;9950;50.168;8.210;2022-11-15T11:51:53;11.98;;;8.35;;
19605;SDS011;9950;50.168;8.210;2022-11-15T11:54:22;10.95;;;8.23;;
19605;SDS011;9950;50.168;8.210;2022-11-15T11:56:52;10.95;;;8.63;;
19605;SDS011;9950;50.168;8.210;2022-11-15T11:59:25;12.38;;;8.98;;
19605;SDS011;9950;50.168;8.210;2022-11-15T12:01:57;12.30;;;9.27;;
19605;SDS011;9950;50.168;8.210;2022-11-15T12:04:27;12.02;;;9.80;;
19605;SDS011;9950;50.168;8.210;2022-11-15T12:06:57;13.48;;;9.82;;
19605;SDS011;9950;50.168;8.210;2022-11-15T12:09:27;15.02;;;10.68;;
19605;SDS011;9950;50.168;8.210;2022-11-15T12:11:58;14.18;;;9.75;;
19605;SDS011;9950;50.168;8.210;2022-11-15T12:14:30;11.43;;;8.90;;
19605;SDS011;9950;50.168;8.210;2022-11-15T12:17:00;11.68;;;8.85;;
19605;SDS011;9950;50.168;8.210;2022-11-15T12:19:28;9.10;;;7.82;;
19605;SDS011;9950;50.168;8.210;2022-11-15T12:21:57;9.60;;;8.18;;
19605;SDS011;9950;50.168;8.210;2022-11-15T12:24:28;9.82;;;7.88;;
19605;SDS011;9950;50.168;8.210;2022-11-15T12:26:57;14.68;;;8.77;;
19605;SDS011;9950;50.168;8.210;2022-11-15T12:29:27;12.98;;;9.00;;
19605;SDS011;9950;50.168;8.210;2022-11-15T12:31:56;12.00;;;8.75;;
19605;SDS011;9950;50.168;8.210;2022-11-15T12:34:43;11.98;;;9.55;;
19605;SDS011;9950;50.168;8.210;2022-11-15T12:40:04;14.38;;;12.32;;
19605;SDS011;9950;50.168;8.210;2022-11-15T12:42:35;19.80;;;13.27;;
19605;SDS011;9950;50.168;8.210;2022-11-15T12:45:03;14.40;;;11.85;;
19605;SDS011;9950;50.168;8.210;2022-11-15T12:47:50;19.10;;;13.70;;
19605;SDS011;9950;50.168;8.210;2022-11-15T12:50:33;19.55;;;12.68;;
19605;SDS011;9950;50.168;8.210;2022-11-15T12:53:26;18.00;;;12.75;;
19605;SDS011;9950;50.168;8.210;2022-11-15T12:56:08;16.52;;;12.30;;
19605;SDS011;9950;50.168;8.210;2022-11-15T12:58:43;14.82;;;11.60;;
19605;SDS011;9950;50.168;8.210;2022-11-15T13:01:15;18.23;;;11.60;;
19605;SDS011;9950;50.168;8.210;2022-11-15T13:04:08;14.80;;;11.88;;
19605;SDS011;9950;50.168;8.210;2022-11-15T13:06:41;14.35;;;10.70;;
19605;SDS011;9950;50.168;8.210;2022-11-15T13:11:54;11.68;;;9.10;;
19605;SDS011;9950;50.168;8.210;2022-11-15T13:17:19;10.55;;;9.15;;
19605;SDS011;9950;50.168;8.210;2022-11-15T13:19:52;14.55;;;9.10;;
19605;SDS011;9950;50.168;8.210;2022-11-15T13:22:21;11.18;;;8.48;;
19605;SDS011;9950;50.168;8.210;2022-11-15T13:25:02;9.48;;;8.40;;
19605;SDS011;9950;50.168;8.210;2022-11-15T13:27:30;12.75;;;8.43;;
19605;SDS011;9950;50.168;8.210;2022-11-15T13:29:57;11.52;;;8.13;;
19605;SDS011;9950;50.168;8.210;2022-11-15T13:32:25;11.32;;;8.20;;
19605;SDS011;9950;50.168;8.210;2022-11-15T13:34:52;16.23;;;8.38;;
19605;SDS011;9950;50.168;8.210;2022-11-15T13:37:29;9.38;;;7.78;;
19605;SDS011;9950;50.168;8.210;2022-11-15T13:40:09;12.48;;;8.63;;
19605;SDS011;9950;50.168;8.210;2022-11-15T13:42:37;11.98;;;8.65;;
19605;SDS011;9950;50.168;8.210;2022-11-15T13:45:04;11.23;;;8.98;;
19605;SDS011;9950;50.168;8.210;2022-11-15T13:47:32;10.88;;;9.13;;
19605;SDS011;9950;50.168;8.210;2022-11-15T13:49:59;13.60;;;10.40;;
19605;SDS011;9950;50.168;8.210;2022-11-15T13:52:28;12.73;;;9.27;;
19605;SDS011;9950;50.168;8.210;2022-11-15T13:54:59;11.63;;;9.65;;
19605;SDS011;9950;50.168;8.210;2022-11-15T13:57:29;13.48;;;10.02;;
19605;SDS011;9950;50.168;8.210;2022-11-15T14:00:00;13.73;;;10.27;;
19605;SDS011;9950;50.168;8.210;2022-11-15T14:02:29;15.45;;;10.48;;
19605;SDS011;9950;50.168;8.210;2022-11-15T14:04:58;12.90;;;10.60;;
19605;SDS011;9950;50.168;8.210;2022-11-15T14:07:27;15.98;;;10.70;;
19605;SDS011;9950;50.168;8.210;2022-11-15T14:09:54;17.55;;;11.88;;
19605;SDS011;9950;50.168;8.210;2022-11-15T14:12:32;16.80;;;11.60;;
19605;SDS011;9950;50.168;8.210;2022-11-15T14:15:02;17.27;;;11.85;;
19605;SDS011;9950;50.168;8.210;2022-11-15T14:17:44;14.63;;;12.27;;
19605;SDS011;9950;50.168;8.210;2022-11-15T14:20:28;15.38;;;12.88;;
19605;SDS011;9950;50.168;8.210;2022-11-15T14:22:56;16.75;;;12.57;;
19605;SDS011;9950;50.168;8.210;2022-11-15T14:25:24;15.32;;;12.13;;
19605;SDS011;9950;50.168;8.210;2022-11-15T14:30:42;15.25;;;12.07;;
19605;SDS011;9950;50.168;8.210;2022-11-15T14:33:21;16.77;;;13.05;;
19605;SDS011;9950;50.168;8.210;2022-11-15T14:35:49;15.98;;;12.85;;
19605;SDS011;9950;50.168;8.210;2022-11-15T14:38:16;19.63;;;14.15;;
19605;SDS011;9950;50.168;8.210;2022-11-15T14:40:44;19.20;;;14.27;;
19605;SDS011;9950;50.168;8.210;2022-11-15T14:43:11;20.23;;;14.35;;
19605;SDS011;9950;50.168;8.210;2022-11-15T14:45:39;15.80;;;13.65;;
19605;SDS011;9950;50.168;8.210;2022-11-15T14:48:08;19.33;;;13.73;;
19605;SDS011;9950;50.168;8.210;2022-11-15T14:50:35;18.63;;;13.52;;
19605;SDS011;9950;50.168;8.210;2022-11-15T14:53:02;29.23;;;18.90;;
19605;SDS011;9950;50.168;8.210;2022-11-15T14:55:30;18.67;;;14.00;;
19605;SDS011;9950;50.168;8.210;2022-11-15T14:58:00;18.02;;;13.85;;
19605;SDS011;9950;50.168;8.210;2022-11-15T15:00:28;18.38;;;13.57;;
19605;SDS011;9950;50.168;8.210;2022-11-15T15:02:56;16.35;;;12.95;;
19605;SDS011;9950;50.168;8.210;2022-11-15T15:05:25;18.80;;;14.75;;
19605;SDS011;9950;50.168;8.210;2022-11-15T15:07:52;16.95;;;12.73;;
19605;SDS011;9950;50.168;8.210;2022-11-15T15:10:19;15.65;;;11.80;;
19605;SDS011;9950;50.168;8.210;2022-11-15T15:12:47;13.45;;;10.75;;
19605;SDS011;9950;50.168;8.210;2022-11-15T15:15:15;13.38;;;10.65;;